createdAt,value
2016-09-03T00:00:05.982Z,64.3
2016-09-03T00:10:05.992Z,64.3
2016-09-03T00:20:04.095Z,64.3
2016-09-03T00:30:05.992Z,64.8
2016-09-03T00:40:06.022Z,64.3
2016-09-03T00:50:06.713Z,64.3
2016-09-03T01:00:01.689Z,63.8
2016-09-03T01:10:06.019Z,64.8
2016-09-03T01:20:05.992Z,64.3
2016-09-03T01:30:06.031Z,63.8
2016-09-03T01:40:03.757Z,63.8
2016-09-03T01:50:05.990Z,64.3
2016-09-03T02:00:06.026Z,63.8
2016-09-03T02:10:06.024Z,64.3
2016-09-03T02:20:05.985Z,64.3
2016-09-03T02:30:05.987Z,63.8
2016-09-03T02:40:05.986Z,63.8
2016-09-03T02:50:05.981Z,63.2
2016-09-03T03:00:05.986Z,63.8
2016-09-03T03:10:05.994Z,63.8
2016-09-03T03:20:05.985Z,63.8
2016-09-03T03:30:06.021Z,62.7
2016-09-03T03:40:06.017Z,63.8
2016-09-03T03:50:05.991Z,62.7
2016-09-03T04:00:06.023Z,62.7
2016-09-03T04:10:06.028Z,62.7
2016-09-03T04:20:05.985Z,62.1
2016-09-03T04:30:06.021Z,62.7
2016-09-03T04:40:06.020Z,62.7
2016-09-03T04:50:05.984Z,62.1
2016-09-03T05:00:05.988Z,62.7
2016-09-03T05:10:05.990Z,62.7
2016-09-03T05:20:06.059Z,62.7
2016-09-03T05:30:06.023Z,62.7
2016-09-03T05:40:05.995Z,62.7
2016-09-03T05:50:06.019Z,62.7
2016-09-03T06:00:06.047Z,62.7
2016-09-03T06:10:05.307Z,63.2
2016-09-03T06:20:05.989Z,63.2
2016-09-03T06:30:06.019Z,62.7
2016-09-03T06:40:06.055Z,63.2
2016-09-03T06:50:01.741Z,63.2
2016-09-03T07:00:05.991Z,62.7
2016-09-03T07:10:06.038Z,63.8
2016-09-03T07:20:06.081Z,63.8
2016-09-03T07:30:06.195Z,63.8
2016-09-03T07:40:06.266Z,63.2
2016-09-03T07:50:06.342Z,64.3
2016-09-03T08:00:06.244Z,64.3
2016-09-03T08:10:06.068Z,64.8
2016-09-03T08:20:06.032Z,66.4
2016-09-03T08:30:06.092Z,66.4
2016-09-03T08:40:06.128Z,67
2016-09-03T08:50:05.993Z,67
2016-09-03T09:00:06.022Z,66.4
2016-09-03T09:10:05.993Z,66.4
2016-09-03T09:20:05.990Z,65.9
2016-09-03T09:30:05.996Z,65.9
2016-09-03T09:40:06.017Z,65.9
2016-09-03T09:50:06.019Z,65.4
2016-09-03T10:00:05.978Z,65.9
2016-09-03T10:10:06.055Z,65.9
2016-09-03T10:20:06.027Z,65.4
2016-09-03T10:30:05.995Z,65.9
2016-09-03T10:40:01.927Z,65.9
2016-09-03T10:50:06.026Z,65.9
2016-09-03T11:00:06.025Z,65.9
2016-09-03T11:10:06.018Z,65.9
2016-09-03T11:20:03.826Z,67
2016-09-03T11:30:05.984Z,65.9
2016-09-03T11:40:06.023Z,66.4
2016-09-03T11:50:06.018Z,67
2016-09-03T12:00:02.110Z,67
2016-09-03T12:10:06.021Z,67
2016-09-03T12:20:05.982Z,67
2016-09-03T12:30:05.983Z,67.5
2016-09-03T12:40:05.981Z,67.5
2016-09-03T12:50:05.989Z,67
2016-09-03T13:00:06.028Z,68.1
2016-09-03T13:10:06.060Z,67.5
2016-09-03T13:20:05.986Z,67.5
2016-09-03T13:30:05.981Z,67
2016-09-03T13:40:05.995Z,67.5
2016-09-03T13:50:06.011Z,68.1
2016-09-03T14:00:06.048Z,67.5
2016-09-03T14:10:06.019Z,68.1
2016-09-03T14:20:06.015Z,67.5
2016-09-03T14:30:06.018Z,68.1
2016-09-03T14:40:05.988Z,68.1
2016-09-03T14:50:06.014Z,68.1
2016-09-03T15:00:06.015Z,68.1
2016-09-03T15:10:06.021Z,68.1
2016-09-03T15:20:06.018Z,68.1
2016-09-03T15:30:06.306Z,68.1
2016-09-03T15:40:05.987Z,68.1
2016-09-03T15:50:05.985Z,68.1
2016-09-03T16:00:06.024Z,68.1
2016-09-03T16:10:05.988Z,68.1
2016-09-03T16:20:06.020Z,68.1
2016-09-03T16:30:06.014Z,67.5
2016-09-03T16:40:06.055Z,68.1
2016-09-03T16:50:06.052Z,68.1
2016-09-03T17:00:06.026Z,68.1
2016-09-03T17:10:03.796Z,67.5
2016-09-03T17:20:06.023Z,67.5
2016-09-03T17:30:05.985Z,68.1
2016-09-03T17:40:06.016Z,67.5
2016-09-03T17:50:06.052Z,67
2016-09-03T18:00:05.988Z,67
2016-09-03T18:10:06.049Z,67
2016-09-03T18:20:06.018Z,67
2016-09-03T18:30:06.058Z,67
2016-09-03T18:40:05.984Z,65.9
2016-09-03T18:50:05.993Z,65.9
2016-09-03T19:00:06.025Z,65.9
2016-09-03T19:10:05.987Z,65.9
2016-09-03T19:20:05.986Z,65.9
2016-09-03T19:30:05.987Z,65.9
2016-09-03T19:40:05.997Z,65.9
2016-09-03T19:50:05.994Z,65.4
2016-09-03T20:00:06.031Z,65.9
2016-09-03T20:10:06.031Z,65.4
2016-09-03T20:20:06.005Z,65.9
2016-09-03T20:30:05.994Z,65.4
2016-09-03T20:40:06.063Z,65.4
2016-09-03T20:50:05.995Z,65.4
2016-09-03T21:00:05.985Z,65.4
2016-09-03T21:10:06.014Z,65.9
2016-09-03T21:20:06.017Z,64.8
2016-09-03T21:30:05.991Z,65.9
2016-09-03T21:40:05.984Z,65.9
2016-09-03T21:50:05.992Z,64.8
2016-09-03T22:00:05.988Z,64.8
2016-09-03T22:10:05.991Z,64.8
2016-09-03T22:20:03.947Z,64.8
2016-09-03T22:30:05.988Z,64.8
2016-09-03T22:40:05.990Z,64.8
2016-09-03T22:50:06.022Z,64.8
2016-09-03T23:00:06.027Z,64.8
2016-09-03T23:10:06.050Z,64.8
2016-09-03T23:20:06.051Z,65.4
2016-09-03T23:30:05.990Z,64.3
2016-09-03T23:40:04.465Z,64.8
2016-09-03T23:50:05.996Z,64.3
